sensor_id;sensor_type;location;lat;lon;timestamp;P1;durP1;ratioP1;P2;durP2;ratioP2
1847;SDS011;924;52.448;13.356;2023-04-21T00:01:30;9.27;;;8.30;;
1847;SDS011;924;52.448;13.356;2023-04-21T00:03:56;13.10;;;8.57;;
1847;SDS011;924;52.448;13.356;2023-04-21T00:06:21;12.43;;;8.27;;
1847;SDS011;924;52.448;13.356;2023-04-21T00:08:49;9.07;;;7.80;;
1847;SDS011;924;52.448;13.356;2023-04-21T00:11:15;9.33;;;7.90;;
1847;SDS011;924;52.448;13.356;2023-04-21T00:13:40;13.70;;;9.97;;
1847;SDS011;924;52.448;13.356;2023-04-21T00:16:05;16.90;;;9.33;;
1847;SDS011;924;52.448;13.356;2023-04-21T00:18:31;8.90;;;8.03;;
1847;SDS011;924;52.448;13.356;2023-04-21T00:20:56;9.53;;;8.20;;
1847;SDS011;924;52.448;13.356;2023-04-21T00:23:21;11.03;;;8.40;;
1847;SDS011;924;52.448;13.356;2023-04-21T00:25:46;10.27;;;9.23;;
1847;SDS011;924;52.448;13.356;2023-04-21T00:28:12;10.57;;;8.40;;
1847;SDS011;924;52.448;13.356;2023-04-21T00:30:37;11.73;;;9.30;;
1847;SDS011;924;52.448;13.356;2023-04-21T00:33:02;11.90;;;9.43;;
1847;SDS011;924;52.448;13.356;2023-04-21T00:35:27;13.33;;;9.40;;
1847;SDS011;924;52.448;13.356;2023-04-21T00:37:52;15.00;;;9.27;;
1847;SDS011;924;52.448;13.356;2023-04-21T00:40:18;9.93;;;9.03;;
1847;SDS011;924;52.448;13.356;2023-04-21T00:42:43;10.53;;;9.53;;
1847;SDS011;924;52.448;13.356;2023-04-21T00:45:08;13.80;;;9.00;;
1847;SDS011;924;52.448;13.356;2023-04-21T00:47:34;14.47;;;10.17;;
1847;SDS011;924;52.448;13.356;2023-04-21T00:49:59;14.67;;;8.70;;
1847;SDS011;924;52.448;13.356;2023-04-21T00:52:25;10.20;;;9.20;;
1847;SDS011;924;52.448;13.356;2023-04-21T00:54:50;12.57;;;9.13;;
1847;SDS011;924;52.448;13.356;2023-04-21T00:57:16;13.30;;;9.30;;
1847;SDS011;924;52.448;13.356;2023-04-21T00:59:41;11.37;;;10.10;;
1847;SDS011;924;52.448;13.356;2023-04-21T01:02:07;9.63;;;8.73;;
1847;SDS011;924;52.448;13.356;2023-04-21T01:04:32;15.10;;;8.97;;
1847;SDS011;924;52.448;13.356;2023-04-21T01:07:03;10.40;;;9.30;;
1847;SDS011;924;52.448;13.356;2023-04-21T01:09:28;16.10;;;10.00;;
1847;SDS011;924;52.448;13.356;2023-04-21T01:12:00;13.70;;;9.63;;
1847;SDS011;924;52.448;13.356;2023-04-21T01:14:27;11.03;;;9.90;;
1847;SDS011;924;52.448;13.356;2023-04-21T01:16:52;13.23;;;10.90;;
1847;SDS011;924;52.448;13.356;2023-04-21T01:19:17;12.00;;;10.90;;
1847;SDS011;924;52.448;13.356;2023-04-21T01:21:44;12.63;;;10.73;;
1847;SDS011;924;52.448;13.356;2023-04-21T01:24:09;19.33;;;10.63;;
1847;SDS011;924;52.448;13.356;2023-04-21T01:26:35;11.20;;;10.10;;
1847;SDS011;924;52.448;13.356;2023-04-21T01:29:00;13.43;;;10.80;;
1847;SDS011;924;52.448;13.356;2023-04-21T01:31:26;12.10;;;10.60;;
1847;SDS011;924;52.448;13.356;2023-04-21T01:33:51;16.30;;;11.17;;
1847;SDS011;924;52.448;13.356;2023-04-21T01:36:16;13.27;;;11.67;;
1847;SDS011;924;52.448;13.356;2023-04-21T01:38:41;15.70;;;13.40;;
1847;SDS011;924;52.448;13.356;2023-04-21T01:41:07;14.23;;;10.60;;
1847;SDS011;924;52.448;13.356;2023-04-21T01:43:32;12.33;;;11.03;;
1847;SDS011;924;52.448;13.356;2023-04-21T01:45:58;15.83;;;11.37;;
1847;SDS011;924;52.448;13.356;2023-04-21T01:48:23;13.37;;;11.50;;
1847;SDS011;924;52.448;13.356;2023-04-21T01:50:48;13.00;;;11.10;;
1847;SDS011;924;52.448;13.356;2023-04-21T01:53:14;14.13;;;12.37;;
1847;SDS011;924;52.448;13.356;2023-04-21T01:55:39;14.30;;;11.90;;
1847;SDS011;924;52.448;13.356;2023-04-21T01:58:05;15.13;;;12.50;;
1847;SDS011;924;52.448;13.356;2023-04-21T02:00:30;19.10;;;12.80;;
1847;SDS011;924;52.448;13.356;2023-04-21T02:02:55;14.80;;;12.30;;
1847;SDS011;924;52.448;13.356;2023-04-21T02:05:20;14.33;;;12.53;;
1847;SDS011;924;52.448;13.356;2023-04-21T02:07:45;14.33;;;11.37;;
1847;SDS011;924;52.448;13.356;2023-04-21T02:10:11;16.50;;;12.20;;
1847;SDS011;924;52.448;13.356;2023-04-21T02:12:36;13.67;;;12.27;;
1847;SDS011;924;52.448;13.356;2023-04-21T02:15:02;14.70;;;12.23;;
1847;SDS011;924;52.448;13.356;2023-04-21T02:17:27;15.67;;;14.17;;
1847;SDS011;924;52.448;13.356;2023-04-21T02:19:52;13.80;;;11.93;;
1847;SDS011;924;52.448;13.356;2023-04-21T02:22:18;13.87;;;12.47;;
1847;SDS011;924;52.448;13.356;2023-04-21T02:24:43;16.43;;;14.00;;
1847;SDS011;924;52.448;13.356;2023-04-21T02:27:08;13.67;;;11.60;;
1847;SDS011;924;52.448;13.356;2023-04-21T02:29:34;16.10;;;13.30;;
1847;SDS011;924;52.448;13.356;2023-04-21T02:31:59;13.93;;;11.93;;
1847;SDS011;924;52.448;13.356;2023-04-21T02:34:24;14.40;;;12.90;;
1847;SDS011;924;52.448;13.356;2023-04-21T02:36:50;14.27;;;12.70;;
1847;SDS011;924;52.448;13.356;2023-04-21T02:39:15;13.83;;;12.33;;
1847;SDS011;924;52.448;13.356;2023-04-21T02:41:40;15.03;;;12.70;;
1847;SDS011;924;52.448;13.356;2023-04-21T02:44:06;13.40;;;11.90;;
1847;SDS011;924;52.448;13.356;2023-04-21T02:46:31;13.87;;;12.47;;
1847;SDS011;924;52.448;13.356;2023-04-21T02:48:56;14.07;;;12.60;;
1847;SDS011;924;52.448;13.356;2023-04-21T02:51:21;13.40;;;12.10;;
1847;SDS011;924;52.448;13.356;2023-04-21T02:53:46;12.70;;;11.30;;
1847;SDS011;924;52.448;13.356;2023-04-21T02:56:12;14.10;;;12.53;;
1847;SDS011;924;52.448;13.356;2023-04-21T02:58:37;15.60;;;13.93;;
1847;SDS011;924;52.448;13.356;2023-04-21T03:01:03;15.30;;;12.53;;
1847;SDS011;924;52.448;13.356;2023-04-21T03:03:29;17.37;;;12.97;;
1847;SDS011;924;52.448;13.356;2023-04-21T03:05:57;16.50;;;13.40;;
1847;SDS011;924;52.448;13.356;2023-04-21T03:08:23;15.60;;;13.00;;
1847;SDS011;924;52.448;13.356;2023-04-21T03:10:48;13.73;;;12.43;;
1847;SDS011;924;52.448;13.356;2023-04-21T03:13:14;14.80;;;13.20;;
1847;SDS011;924;52.448;13.356;2023-04-21T03:15:39;15.33;;;12.67;;
1847;SDS011;924;52.448;13.356;2023-04-21T03:18:04;17.30;;;12.97;;
1847;SDS011;924;52.448;13.356;2023-04-21T03:20:30;14.33;;;12.60;;
1847;SDS011;924;52.448;13.356;2023-04-21T03:22:56;15.40;;;13.17;;
1847;SDS011;924;52.448;13.356;2023-04-21T03:25:21;14.47;;;13.10;;
1847;SDS011;924;52.448;13.356;2023-04-21T03:27:46;12.80;;;11.70;;
1847;SDS011;924;52.448;13.356;2023-04-21T03:30:11;14.63;;;12.97;;
1847;SDS011;924;52.448;13.356;2023-04-21T03:32:37;14.23;;;12.83;;
1847;SDS011;924;52.448;13.356;2023-04-21T03:35:02;13.37;;;11.97;;
1847;SDS011;924;52.448;13.356;2023-04-21T03:37:27;18.20;;;14.50;;
1847;SDS011;924;52.448;13.356;2023-04-21T03:39:52;15.70;;;13.00;;
1847;SDS011;924;52.448;13.356;2023-04-21T03:42:17;13.70;;;12.40;;
1847;SDS011;924;52.448;13.356;2023-04-21T03:44:43;21.20;;;13.73;;
1847;SDS011;924;52.448;13.356;2023-04-21T03:47:08;19.20;;;14.30;;
1847;SDS011;924;52.448;13.356;2023-04-21T03:49:33;16.50;;;13.63;;
1847;SDS011;924;52.448;13.356;2023-04-21T03:51:58;14.20;;;12.80;;
1847;SDS011;924;52.448;13.356;2023-04-21T03:54:24;13.40;;;12.10;;
1847;SDS011;924;52.448;13.356;2023-04-21T03:56:49;15.50;;;14.00;;
1847;SDS011;924;52.448;13.356;2023-04-21T03:59:14;15.60;;;13.97;;
1847;SDS011;924;52.448;13.356;2023-04-21T04:01:39;13.70;;;12.40;;
1847;SDS011;924;52.448;13.356;2023-04-21T04:04:06;15.27;;;13.77;;
1847;SDS011;924;52.448;13.356;2023-04-21T04:06:31;15.00;;;13.50;;
1847;SDS011;924;52.448;13.356;2023-04-21T04:08:57;16.80;;;14.40;;
1847;SDS011;924;52.448;13.356;2023-04-21T04:11:22;13.70;;;12.40;;
1847;SDS011;924;52.448;13.356;2023-04-21T04:13:48;15.53;;;14.00;;
1847;SDS011;924;52.448;13.356;2023-04-21T04:16:13;15.90;;;14.30;;
1847;SDS011;924;52.448;13.356;2023-04-21T04:18:38;14.67;;;13.30;;
1847;SDS011;924;52.448;13.356;2023-04-21T04:21:04;15.17;;;13.57;;
1847;SDS011;924;52.448;13.356;2023-04-21T04:23:30;17.40;;;13.77;;
1847;SDS011;924;52.448;13.356;2023-04-21T04:25:55;15.07;;;13.67;;
1847;SDS011;924;52.448;13.356;2023-04-21T04:28:21;14.70;;;13.20;;
1847;SDS011;924;52.448;13.356;2023-04-21T04:30:46;15.93;;;13.77;;
1847;SDS011;924;52.448;13.356;2023-04-21T04:33:12;16.17;;;14.03;;
1847;SDS011;924;52.448;13.356;2023-04-21T04:35:38;14.90;;;13.40;;
1847;SDS011;924;52.448;13.356;2023-04-21T04:38:03;17.63;;;13.70;;
1847;SDS011;924;52.448;13.356;2023-04-21T04:40:28;17.90;;;15.00;;
1847;SDS011;924;52.448;13.356;2023-04-21T04:42:54;16.73;;;14.70;;
1847;SDS011;924;52.448;13.356;2023-04-21T04:45:19;20.40;;;15.00;;
1847;SDS011;924;52.448;13.356;2023-04-21T04:47:46;16.83;;;15.17;;
1847;SDS011;924;52.448;13.356;2023-04-21T04:50:11;15.60;;;14.00;;
1847;SDS011;924;52.448;13.356;2023-04-21T04:52:37;16.80;;;15.13;;
1847;SDS011;924;52.448;13.356;2023-04-21T04:55:02;17.97;;;14.43;;
1847;SDS011;924;52.448;13.356;2023-04-21T04:57:29;14.80;;;13.30;;
1847;SDS011;924;52.448;13.356;2023-04-21T04:59:54;16.77;;;14.40;;
1847;SDS011;924;52.448;13.356;2023-04-21T05:02:20;15.97;;;14.37;;
1847;SDS011;924;52.448;13.356;2023-04-21T05:04:46;16.17;;;14.67;;
1847;SDS011;924;52.448;13.356;2023-04-21T05:07:11;14.80;;;13.40;;
1847;SDS011;924;52.448;13.356;2023-04-21T05:09:36;15.70;;;14.10;;
1847;SDS011;924;52.448;13.356;2023-04-21T05:12:02;16.27;;;14.77;;
1847;SDS011;924;52.448;13.356;2023-04-21T05:14:27;17.00;;;15.17;;
1847;SDS011;924;52.448;13.356;2023-04-21T05:16:52;17.03;;;15.30;;
1847;SDS011;924;52.448;13.356;2023-04-21T05:19:17;18.37;;;15.17;;
1847;SDS011;924;52.448;13.356;2023-04-21T05:21:43;18.80;;;15.53;;
1847;SDS011;924;52.448;13.356;2023-04-21T05:24:08;15.70;;;14.10;;
1847;SDS011;924;52.448;13.356;2023-04-21T05:26:33;25.17;;;16.57;;
1847;SDS011;924;52.448;13.356;2023-04-21T05:28:58;19.90;;;14.27;;
1847;SDS011;924;52.448;13.356;2023-04-21T05:31:23;18.93;;;15.73;;
1847;SDS011;924;52.448;13.356;2023-04-21T05:33:49;18.67;;;14.80;;
1847;SDS011;924;52.448;13.356;2023-04-21T05:36:14;16.90;;;15.27;;
1847;SDS011;924;52.448;13.356;2023-04-21T05:38:39;17.50;;;15.83;;
1847;SDS011;924;52.448;13.356;2023-04-21T05:41:05;15.60;;;14.00;;
1847;SDS011;924;52.448;13.356;2023-04-21T05:43:30;19.30;;;14.27;;
1847;SDS011;924;52.448;13.356;2023-04-21T05:45:59;16.53;;;14.00;;
1847;SDS011;924;52.448;13.356;2023-04-21T05:48:24;17.57;;;15.77;;
1847;SDS011;924;52.448;13.356;2023-04-21T05:50:49;15.27;;;13.87;;
1847;SDS011;924;52.448;13.356;2023-04-21T05:53:15;17.60;;;15.60;;
1847;SDS011;924;52.448;13.356;2023-04-21T05:55:40;18.67;;;16.20;;
1847;SDS011;924;52.448;13.356;2023-04-21T05:58:05;20.60;;;15.07;;
1847;SDS011;924;52.448;13.356;2023-04-21T06:00:30;15.60;;;13.77;;
1847;SDS011;924;52.448;13.356;2023-04-21T06:02:56;14.93;;;13.63;;
1847;SDS011;924;52.448;13.356;2023-04-21T06:05:21;16.20;;;14.50;;
1847;SDS011;924;52.448;13.356;2023-04-21T06:07:46;15.43;;;13.93;;
1847;SDS011;924;52.448;13.356;2023-04-21T06:10:12;17.70;;;15.10;;
1847;SDS011;924;52.448;13.356;2023-04-21T06:12:37;15.40;;;13.87;;
1847;SDS011;924;52.448;13.356;2023-04-21T06:15:03;17.73;;;16.03;;
1847;SDS011;924;52.448;13.356;2023-04-21T06:17:28;14.40;;;13.10;;
1847;SDS011;924;52.448;13.356;2023-04-21T06:19:54;17.17;;;14.40;;
1847;SDS011;924;52.448;13.356;2023-04-21T06:22:20;18.70;;;13.70;;
1847;SDS011;924;52.448;13.356;2023-04-21T06:24:45;15.53;;;14.13;;
1847;SDS011;924;52.448;13.356;2023-04-21T06:27:10;15.50;;;13.93;;
1847;SDS011;924;52.448;13.356;2023-04-21T06:29:39;14.57;;;13.20;;
1847;SDS011;924;52.448;13.356;2023-04-21T06:32:04;22.73;;;15.40;;
1847;SDS011;924;52.448;13.356;2023-04-21T06:34:29;17.70;;;13.77;;
1847;SDS011;924;52.448;13.356;2023-04-21T06:36:55;14.10;;;11.60;;
1847;SDS011;924;52.448;13.356;2023-04-21T06:39:20;18.13;;;13.83;;
1847;SDS011;924;52.448;13.356;2023-04-21T06:41:45;13.50;;;12.20;;
1847;SDS011;924;52.448;13.356;2023-04-21T06:44:10;15.93;;;14.40;;
1847;SDS011;924;52.448;13.356;2023-04-21T06:46:39;14.60;;;12.47;;
1847;SDS011;924;52.448;13.356;2023-04-21T06:49:06;15.30;;;12.00;;
1847;SDS011;924;52.448;13.356;2023-04-21T06:51:31;16.83;;;14.37;;
1847;SDS011;924;52.448;13.356;2023-04-21T06:53:56;14.93;;;11.10;;
1847;SDS011;924;52.448;13.356;2023-04-21T06:56:22;13.80;;;11.83;;
1847;SDS011;924;52.448;13.356;2023-04-21T06:58:47;14.70;;;13.40;;
1847;SDS011;924;52.448;13.356;2023-04-21T07:01:12;15.17;;;13.57;;
1847;SDS011;924;52.448;13.356;2023-04-21T07:03:37;15.40;;;13.47;;
1847;SDS011;924;52.448;13.356;2023-04-21T07:06:03;15.10;;;13.40;;
1847;SDS011;924;52.448;13.356;2023-04-21T07:08:28;14.10;;;12.90;;
1847;SDS011;924;52.448;13.356;2023-04-21T07:10:53;14.77;;;12.70;;
1847;SDS011;924;52.448;13.356;2023-04-21T07:13:18;14.47;;;12.93;;
1847;SDS011;924;52.448;13.356;2023-04-21T07:15:44;15.03;;;13.60;;
1847;SDS011;924;52.448;13.356;2023-04-21T07:18:09;16.70;;;15.00;;
1847;SDS011;924;52.448;13.356;2023-04-21T07:20:34;17.40;;;14.60;;
1847;SDS011;924;52.448;13.356;2023-04-21T07:23:00;14.90;;;13.47;;
1847;SDS011;924;52.448;13.356;2023-04-21T07:25:25;17.10;;;14.70;;
1847;SDS011;924;52.448;13.356;2023-04-21T07:27:51;15.50;;;13.93;;
1847;SDS011;924;52.448;13.356;2023-04-21T07:30:16;14.67;;;13.20;;
1847;SDS011;924;52.448;13.356;2023-04-21T07:32:42;14.90;;;13.40;;
1847;SDS011;924;52.448;13.356;2023-04-21T07:35:07;14.20;;;12.90;;
1847;SDS011;924;52.448;13.356;2023-04-21T07:37:33;16.27;;;13.90;;
1847;SDS011;924;52.448;13.356;2023-04-21T07:39:58;14.27;;;12.97;;
1847;SDS011;924;52.448;13.356;2023-04-21T07:42:23;15.23;;;13.73;;
1847;SDS011;924;52.448;13.356;2023-04-21T07:44:50;14.67;;;13.17;;
1847;SDS011;924;52.448;13.356;2023-04-21T07:47:16;15.30;;;13.90;;
1847;SDS011;924;52.448;13.356;2023-04-21T07:49:42;15.80;;;12.93;;
1847;SDS011;924;52.448;13.356;2023-04-21T07:52:07;15.67;;;13.90;;
1847;SDS011;924;52.448;13.356;2023-04-21T07:54:32;17.17;;;13.40;;
1847;SDS011;924;52.448;13.356;2023-04-21T07:56:58;15.00;;;13.43;;
1847;SDS011;924;52.448;13.356;2023-04-21T07:59:23;15.80;;;14.20;;
1847;SDS011;924;52.448;13.356;2023-04-21T08:01:48;19.70;;;13.63;;
1847;SDS011;924;52.448;13.356;2023-04-21T08:04:15;21.67;;;14.50;;
1847;SDS011;924;52.448;13.356;2023-04-21T08:06:41;15.50;;;13.90;;
1847;SDS011;924;52.448;13.356;2023-04-21T08:09:06;23.10;;;14.70;;
1847;SDS011;924;52.448;13.356;2023-04-21T08:11:31;14.40;;;12.40;;
1847;SDS011;924;52.448;13.356;2023-04-21T08:13:56;13.90;;;12.30;;
1847;SDS011;924;52.448;13.356;2023-04-21T08:16:22;17.43;;;12.57;;
1847;SDS011;924;52.448;13.356;2023-04-21T08:18:47;15.70;;;11.67;;
1847;SDS011;924;52.448;13.356;2023-04-21T08:21:12;20.50;;;13.77;;
1847;SDS011;924;52.448;13.356;2023-04-21T08:23:38;14.63;;;12.40;;
1847;SDS011;924;52.448;13.356;2023-04-21T08:26:04;13.03;;;11.83;;
1847;SDS011;924;52.448;13.356;2023-04-21T08:28:29;14.30;;;11.73;;
1847;SDS011;924;52.448;13.356;2023-04-21T08:30:54;14.90;;;12.43;;
1847;SDS011;924;52.448;13.356;2023-04-21T08:33:19;13.43;;;12.23;;
1847;SDS011;924;52.448;13.356;2023-04-21T08:35:45;13.60;;;12.30;;
1847;SDS011;924;52.448;13.356;2023-04-21T08:38:10;12.80;;;11.53;;
1847;SDS011;924;52.448;13.356;2023-04-21T08:40:36;14.63;;;13.13;;
1847;SDS011;924;52.448;13.356;2023-04-21T08:43:06;13.30;;;11.93;;
1847;SDS011;924;52.448;13.356;2023-04-21T08:45:31;12.67;;;11.20;;
1847;SDS011;924;52.448;13.356;2023-04-21T08:47:57;16.33;;;13.20;;
1847;SDS011;924;52.448;13.356;2023-04-21T08:50:24;14.83;;;11.90;;
1847;SDS011;924;52.448;13.356;2023-04-21T08:52:50;13.80;;;12.43;;
1847;SDS011;924;52.448;13.356;2023-04-21T08:55:15;14.50;;;12.33;;
1847;SDS011;924;52.448;13.356;2023-04-21T08:57:41;12.37;;;11.43;;
1847;SDS011;924;52.448;13.356;2023-04-21T09:00:06;13.53;;;11.60;;
1847;SDS011;924;52.448;13.356;2023-04-21T09:02:32;12.77;;;11.50;;
1847;SDS011;924;52.448;13.356;2023-04-21T09:04:57;12.40;;;11.00;;
1847;SDS011;924;52.448;13.356;2023-04-21T09:07:30;13.50;;;12.20;;
1847;SDS011;924;52.448;13.356;2023-04-21T09:09:56;12.97;;;11.87;;
1847;SDS011;924;52.448;13.356;2023-04-21T09:12:21;13.03;;;11.83;;
1847;SDS011;924;52.448;13.356;2023-04-21T09:14:46;12.30;;;10.87;;
1847;SDS011;924;52.448;13.356;2023-04-21T09:17:13;11.70;;;10.70;;
1847;SDS011;924;52.448;13.356;2023-04-21T09:19:39;12.27;;;11.20;;
1847;SDS011;924;52.448;13.356;2023-04-21T09:22:04;13.00;;;11.50;;
1847;SDS011;924;52.448;13.356;2023-04-21T09:24:29;15.17;;;11.73;;
1847;SDS011;924;52.448;13.356;2023-04-21T09:26:55;11.60;;;10.70;;
1847;SDS011;924;52.448;13.356;2023-04-21T09:29:23;11.93;;;10.93;;
1847;SDS011;924;52.448;13.356;2023-04-21T09:31:49;13.93;;;12.63;;
1847;SDS011;924;52.448;13.356;2023-04-21T09:36:46;12.10;;;11.10;;
1847;SDS011;924;52.448;13.356;2023-04-21T09:39:12;13.03;;;11.67;;
1847;SDS011;924;52.448;13.356;2023-04-21T09:41:37;13.13;;;12.07;;
1847;SDS011;924;52.448;13.356;2023-04-21T09:44:03;12.27;;;10.83;;
1847;SDS011;924;52.448;13.356;2023-04-21T09:46:31;12.50;;;11.30;;
1847;SDS011;924;52.448;13.356;2023-04-21T09:48:58;13.07;;;10.80;;
1847;SDS011;924;52.448;13.356;2023-04-21T09:51:24;12.90;;;11.70;;
1847;SDS011;924;52.448;13.356;2023-04-21T09:53:50;13.40;;;12.17;;
1847;SDS011;924;52.448;13.356;2023-04-21T09:56:17;13.23;;;11.80;;
1847;SDS011;924;52.448;13.356;2023-04-21T09:58:51;14.07;;;12.37;;
1847;SDS011;924;52.448;13.356;2023-04-21T10:01:16;12.63;;;11.30;;
1847;SDS011;924;52.448;13.356;2023-04-21T10:03:43;11.10;;;10.20;;
1847;SDS011;924;52.448;13.356;2023-04-21T10:06:11;11.00;;;10.00;;
1847;SDS011;924;52.448;13.356;2023-04-21T10:08:36;12.13;;;10.90;;
1847;SDS011;924;52.448;13.356;2023-04-21T10:11:03;13.00;;;11.50;;
1847;SDS011;924;52.448;13.356;2023-04-21T10:13:29;11.40;;;10.27;;
1847;SDS011;924;52.448;13.356;2023-04-21T10:16:02;13.50;;;11.57;;
1847;SDS011;924;52.448;13.356;2023-04-21T10:18:28;11.77;;;10.63;;
1847;SDS011;924;52.448;13.356;2023-04-21T10:21:06;12.77;;;11.57;;
1847;SDS011;924;52.448;13.356;2023-04-21T10:26:04;11.27;;;10.07;;
1847;SDS011;924;52.448;13.356;2023-04-21T10:28:44;11.10;;;10.00;;
1847;SDS011;924;52.448;13.356;2023-04-21T10:33:40;11.47;;;10.33;;
1847;SDS011;924;52.448;13.356;2023-04-21T10:36:06;10.50;;;9.60;;
1847;SDS011;924;52.448;13.356;2023-04-21T10:38:39;10.93;;;9.50;;
1847;SDS011;924;52.448;13.356;2023-04-21T10:41:24;11.40;;;10.40;;
1847;SDS011;924;52.448;13.356;2023-04-21T10:43:50;11.50;;;10.33;;
1847;SDS011;924;52.448;13.356;2023-04-21T10:54:17;11.80;;;9.97;;
1847;SDS011;924;52.448;13.356;2023-04-21T10:56:45;12.23;;;11.10;;
1847;SDS011;924;52.448;13.356;2023-04-21T10:59:10;11.30;;;10.30;;
1847;SDS011;924;52.448;13.356;2023-04-21T11:01:38;12.00;;;10.00;;
1847;SDS011;924;52.448;13.356;2023-04-21T11:04:03;12.50;;;11.37;;
1847;SDS011;924;52.448;13.356;2023-04-21T11:06:29;10.77;;;9.73;;
1847;SDS011;924;52.448;13.356;2023-04-21T11:08:54;11.60;;;10.50;;
1847;SDS011;924;52.448;13.356;2023-04-21T11:11:20;10.87;;;9.60;;
1847;SDS011;924;52.448;13.356;2023-04-21T11:13:46;10.00;;;9.10;;
1847;SDS011;924;52.448;13.356;2023-04-21T11:16:11;9.83;;;9.03;;
1847;SDS011;924;52.448;13.356;2023-04-21T11:18:37;10.17;;;9.27;;
1847;SDS011;924;52.448;13.356;2023-04-21T11:21:21;10.50;;;9.60;;
1847;SDS011;924;52.448;13.356;2023-04-21T11:23:47;22.67;;;12.40;;
1847;SDS011;924;52.448;13.356;2023-04-21T11:26:13;14.70;;;10.70;;
1847;SDS011;924;52.448;13.356;2023-04-21T11:28:41;15.13;;;9.87;;
1847;SDS011;924;52.448;13.356;2023-04-21T11:31:06;11.30;;;10.10;;
1847;SDS011;924;52.448;13.356;2023-04-21T11:33:35;13.00;;;9.47;;
1847;SDS011;924;52.448;13.356;2023-04-21T11:36:07;11.60;;;9.87;;
1847;SDS011;924;52.448;13.356;2023-04-21T11:38:35;11.37;;;10.23;;
1847;SDS011;924;52.448;13.356;2023-04-21T11:41:01;11.43;;;9.97;;
1847;SDS011;924;52.448;13.356;2023-04-21T11:43:26;11.73;;;10.60;;
1847;SDS011;924;52.448;13.356;2023-04-21T11:45:51;10.70;;;9.80;;
1847;SDS011;924;52.448;13.356;2023-04-21T11:48:17;11.57;;;10.50;;
1847;SDS011;924;52.448;13.356;2023-04-21T11:50:47;14.90;;;10.00;;
1847;SDS011;924;52.448;13.356;2023-04-21T11:53:13;10.90;;;9.63;;
1847;SDS011;924;52.448;13.356;2023-04-21T11:55:40;11.47;;;9.17;;
1847;SDS011;924;52.448;13.356;2023-04-21T11:58:06;10.60;;;9.57;;
1847;SDS011;924;52.448;13.356;2023-04-21T12:00:31;15.53;;;11.07;;
1847;SDS011;924;52.448;13.356;2023-04-21T12:02:57;14.70;;;11.17;;
1847;SDS011;924;52.448;13.356;2023-04-21T12:05:22;11.20;;;10.20;;
1847;SDS011;924;52.448;13.356;2023-04-21T12:07:48;13.63;;;10.30;;
1847;SDS011;924;52.448;13.356;2023-04-21T12:10:16;15.17;;;11.40;;
1847;SDS011;924;52.448;13.356;2023-04-21T12:12:42;11.83;;;10.83;;
1847;SDS011;924;52.448;13.356;2023-04-21T12:15:08;10.90;;;9.90;;
1847;SDS011;924;52.448;13.356;2023-04-21T12:17:47;11.70;;;8.70;;
1847;SDS011;924;52.448;13.356;2023-04-21T12:20:15;18.93;;;11.30;;
1847;SDS011;924;52.448;13.356;2023-04-21T12:22:41;10.83;;;9.83;;
1847;SDS011;924;52.448;13.356;2023-04-21T12:25:06;12.53;;;10.73;;
1847;SDS011;924;52.448;13.356;2023-04-21T12:27:33;11.23;;;10.20;;
1847;SDS011;924;52.448;13.356;2023-04-21T12:29:58;11.37;;;10.37;;
1847;SDS011;924;52.448;13.356;2023-04-21T12:32:23;12.00;;;9.80;;
1847;SDS011;924;52.448;13.356;2023-04-21T12:34:49;12.00;;;10.83;;
1847;SDS011;924;52.448;13.356;2023-04-21T12:37:14;10.50;;;9.40;;
1847;SDS011;924;52.448;13.356;2023-04-21T12:39:40;10.67;;;9.57;;
1847;SDS011;924;52.448;13.356;2023-04-21T12:42:05;14.03;;;10.03;;
1847;SDS011;924;52.448;13.356;2023-04-21T12:44:30;11.77;;;10.67;;
1847;SDS011;924;52.448;13.356;2023-04-21T12:46:56;12.23;;;9.70;;
1847;SDS011;924;52.448;13.356;2023-04-21T12:49:21;11.07;;;10.07;;
1847;SDS011;924;52.448;13.356;2023-04-21T12:51:47;10.67;;;9.73;;
1847;SDS011;924;52.448;13.356;2023-04-21T12:54:12;10.17;;;9.10;;
1847;SDS011;924;52.448;13.356;2023-04-21T12:56:38;9.90;;;9.00;;
1847;SDS011;924;52.448;13.356;2023-04-21T12:59:05;10.87;;;8.80;;
1847;SDS011;924;52.448;13.356;2023-04-21T13:01:30;11.07;;;10.07;;
1847;SDS011;924;52.448;13.356;2023-04-21T13:03:55;10.73;;;9.73;;
1847;SDS011;924;52.448;13.356;2023-04-21T13:06:20;9.93;;;8.93;;
1847;SDS011;924;52.448;13.356;2023-04-21T13:08:46;10.23;;;9.33;;
1847;SDS011;924;52.448;13.356;2023-04-21T13:11:11;9.67;;;8.97;;
1847;SDS011;924;52.448;13.356;2023-04-21T13:13:36;10.10;;;9.20;;
1847;SDS011;924;52.448;13.356;2023-04-21T13:16:02;10.00;;;9.17;;
1847;SDS011;924;52.448;13.356;2023-04-21T13:18:28;10.20;;;9.30;;
1847;SDS011;924;52.448;13.356;2023-04-21T13:20:54;10.70;;;9.00;;
1847;SDS011;924;52.448;13.356;2023-04-21T13:23:19;10.60;;;9.73;;
1847;SDS011;924;52.448;13.356;2023-04-21T13:25:44;9.90;;;8.90;;
1847;SDS011;924;52.448;13.356;2023-04-21T13:28:09;9.60;;;8.60;;
1847;SDS011;924;52.448;13.356;2023-04-21T13:30:35;9.90;;;8.90;;
1847;SDS011;924;52.448;13.356;2023-04-21T13:33:01;10.10;;;9.10;;
1847;SDS011;924;52.448;13.356;2023-04-21T13:35:26;9.50;;;8.60;;
1847;SDS011;924;52.448;13.356;2023-04-21T13:37:51;8.50;;;7.80;;
1847;SDS011;924;52.448;13.356;2023-04-21T13:40:16;9.17;;;8.47;;
1847;SDS011;924;52.448;13.356;2023-04-21T13:42:41;9.53;;;8.50;;
1847;SDS011;924;52.448;13.356;2023-04-21T13:45:07;10.97;;;9.73;;
1847;SDS011;924;52.448;13.356;2023-04-21T13:47:32;11.33;;;9.20;;
1847;SDS011;924;52.448;13.356;2023-04-21T13:49:58;9.10;;;8.20;;
1847;SDS011;924;52.448;13.356;2023-04-21T13:52:23;9.70;;;8.80;;
1847;SDS011;924;52.448;13.356;2023-04-21T13:54:49;10.00;;;9.00;;
1847;SDS011;924;52.448;13.356;2023-04-21T13:57:14;10.73;;;9.70;;
1847;SDS011;924;52.448;13.356;2023-04-21T13:59:39;9.80;;;9.00;;
1847;SDS011;924;52.448;13.356;2023-04-21T14:02:05;8.93;;;8.27;;
1847;SDS011;924;52.448;13.356;2023-04-21T14:04:31;8.73;;;7.93;;
1847;SDS011;924;52.448;13.356;2023-04-21T14:06:56;9.27;;;8.27;;
1847;SDS011;924;52.448;13.356;2023-04-21T14:09:21;8.43;;;7.73;;
1847;SDS011;924;52.448;13.356;2023-04-21T14:11:46;10.40;;;9.50;;
1847;SDS011;924;52.448;13.356;2023-04-21T14:14:12;9.90;;;9.00;;
1847;SDS011;924;52.448;13.356;2023-04-21T14:16:37;10.13;;;7.80;;
1847;SDS011;924;52.448;13.356;2023-04-21T14:19:02;9.80;;;7.97;;
1847;SDS011;924;52.448;13.356;2023-04-21T14:21:27;9.60;;;8.30;;
1847;SDS011;924;52.448;13.356;2023-04-21T14:23:53;10.37;;;7.83;;
1847;SDS011;924;52.448;13.356;2023-04-21T14:26:18;9.77;;;7.40;;
1847;SDS011;924;52.448;13.356;2023-04-21T14:28:44;9.60;;;8.80;;
1847;SDS011;924;52.448;13.356;2023-04-21T14:31:09;9.17;;;8.37;;
1847;SDS011;924;52.448;13.356;2023-04-21T14:33:35;8.47;;;7.60;;
1847;SDS011;924;52.448;13.356;2023-04-21T14:36:00;10.43;;;9.40;;
1847;SDS011;924;52.448;13.356;2023-04-21T14:38:25;9.40;;;8.30;;
1847;SDS011;924;52.448;13.356;2023-04-21T14:40:51;9.00;;;7.40;;
1847;SDS011;924;52.448;13.356;2023-04-21T14:43:18;8.93;;;8.03;;
1847;SDS011;924;52.448;13.356;2023-04-21T14:45:44;12.43;;;8.00;;
1847;SDS011;924;52.448;13.356;2023-04-21T14:48:09;8.83;;;7.93;;
1847;SDS011;924;52.448;13.356;2023-04-21T14:50:35;10.60;;;7.53;;
1847;SDS011;924;52.448;13.356;2023-04-21T14:53:01;8.90;;;8.10;;
1847;SDS011;924;52.448;13.356;2023-04-21T14:55:26;8.33;;;7.53;;
1847;SDS011;924;52.448;13.356;2023-04-21T14:57:51;9.40;;;8.53;;
1847;SDS011;924;52.448;13.356;2023-04-21T15:00:17;8.90;;;8.00;;